sensor_id;sensor_type;location;lat;lon;timestamp;pressure;altitude;pressure_sealevel;temperature
12430;BMP280;6279;42.192;24.326;2023-03-14T00:00:07;99610.66;;;2.49
12430;BMP280;6279;42.192;24.326;2023-03-14T00:02:33;99609.31;;;2.31
12430;BMP280;6279;42.192;24.326;2023-03-14T00:04:59;99615.78;;;2.24
12430;BMP280;6279;42.192;24.326;2023-03-14T00:07:24;99619.50;;;2.20
12430;BMP280;6279;42.192;24.326;2023-03-14T00:09:50;99608.50;;;2.18
12430;BMP280;6279;42.192;24.326;2023-03-14T00:12:16;99599.47;;;2.25
12430;BMP280;6279;42.192;24.326;2023-03-14T00:14:41;99593.00;;;2.32
12430;BMP280;6279;42.192;24.326;2023-03-14T00:17:08;99595.06;;;2.27
12430;BMP280;6279;42.192;24.326;2023-03-14T00:19:33;99587.88;;;2.20
12430;BMP280;6279;42.192;24.326;2023-03-14T00:21:59;99586.44;;;2.04
12430;BMP280;6279;42.192;24.326;2023-03-14T00:24:24;99590.53;;;2.06
12430;BMP280;6279;42.192;24.326;2023-03-14T00:26:49;99586.03;;;2.22
12430;BMP280;6279;42.192;24.326;2023-03-14T00:29:15;99578.00;;;2.14
12430;BMP280;6279;42.192;24.326;2023-03-14T00:31:40;99567.53;;;2.05
12430;BMP280;6279;42.192;24.326;2023-03-14T00:34:06;99567.75;;;2.02
12430;BMP280;6279;42.192;24.326;2023-03-14T00:36:31;99564.06;;;2.06
12430;BMP280;6279;42.192;24.326;2023-03-14T00:38:56;99560.75;;;1.92
12430;BMP280;6279;42.192;24.326;2023-03-14T00:41:22;99557.69;;;1.87
12430;BMP280;6279;42.192;24.326;2023-03-14T00:43:49;99553.56;;;1.96
12430;BMP280;6279;42.192;24.326;2023-03-14T00:46:14;99550.50;;;2.04
12430;BMP280;6279;42.192;24.326;2023-03-14T00:48:40;99537.28;;;2.10
12430;BMP280;6279;42.192;24.326;2023-03-14T00:51:07;99538.31;;;2.19
12430;BMP280;6279;42.192;24.326;2023-03-14T00:53:36;99528.34;;;2.27
12430;BMP280;6279;42.192;24.326;2023-03-14T00:56:04;99527.13;;;2.33
12430;BMP280;6279;42.192;24.326;2023-03-14T00:58:30;99526.91;;;2.36
12430;BMP280;6279;42.192;24.326;2023-03-14T01:00:55;99518.38;;;2.35
12430;BMP280;6279;42.192;24.326;2023-03-14T01:03:20;99520.03;;;2.36
12430;BMP280;6279;42.192;24.326;2023-03-14T01:05:46;99521.34;;;2.41
12430;BMP280;6279;42.192;24.326;2023-03-14T01:08:11;99523.41;;;2.37
12430;BMP280;6279;42.192;24.326;2023-03-14T01:10:40;99531.72;;;2.40
12430;BMP280;6279;42.192;24.326;2023-03-14T01:13:07;99525.47;;;2.19
12430;BMP280;6279;42.192;24.326;2023-03-14T01:15:33;99520.97;;;2.23
12430;BMP280;6279;42.192;24.326;2023-03-14T01:17:59;99518.81;;;2.17
12430;BMP280;6279;42.192;24.326;2023-03-14T01:20:24;99510.19;;;2.18
12430;BMP280;6279;42.192;24.326;2023-03-14T01:22:50;99504.97;;;2.07
12430;BMP280;6279;42.192;24.326;2023-03-14T01:25:16;99507.31;;;2.10
12430;BMP280;6279;42.192;24.326;2023-03-14T01:27:42;99509.16;;;1.96
12430;BMP280;6279;42.192;24.326;2023-03-14T01:30:09;99506.19;;;2.02
12430;BMP280;6279;42.192;24.326;2023-03-14T01:32:35;99510.09;;;2.07
12430;BMP280;6279;42.192;24.326;2023-03-14T01:35:00;99515.13;;;2.09
12430;BMP280;6279;42.192;24.326;2023-03-14T01:37:25;99511.63;;;2.10
12430;BMP280;6279;42.192;24.326;2023-03-14T01:39:51;99511.94;;;2.05
12430;BMP280;6279;42.192;24.326;2023-03-14T01:42:17;99501.78;;;2.04
12430;BMP280;6279;42.192;24.326;2023-03-14T01:47:12;99511.44;;;2.00
12430;BMP280;6279;42.192;24.326;2023-03-14T01:49:38;99496.66;;;1.79
12430;BMP280;6279;42.192;24.326;2023-03-14T01:52:07;99497.75;;;1.51
12430;BMP280;6279;42.192;24.326;2023-03-14T01:54:42;99500.28;;;1.39
12430;BMP280;6279;42.192;24.326;2023-03-14T01:57:14;99494.78;;;1.19
12430;BMP280;6279;42.192;24.326;2023-03-14T01:59:45;99491.09;;;1.10
12430;BMP280;6279;42.192;24.326;2023-03-14T02:02:12;99494.13;;;1.03
12430;BMP280;6279;42.192;24.326;2023-03-14T02:04:40;99497.50;;;1.04
12430;BMP280;6279;42.192;24.326;2023-03-14T02:07:19;99484.28;;;0.97
12430;BMP280;6279;42.192;24.326;2023-03-14T02:09:46;99490.88;;;0.87
12430;BMP280;6279;42.192;24.326;2023-03-14T02:12:15;99491.47;;;0.79
12430;BMP280;6279;42.192;24.326;2023-03-14T02:14:40;99484.22;;;0.85
12430;BMP280;6279;42.192;24.326;2023-03-14T02:17:11;99478.16;;;1.00
12430;BMP280;6279;42.192;24.326;2023-03-14T02:19:47;99490.59;;;1.18
12430;BMP280;6279;42.192;24.326;2023-03-14T02:22:16;99499.34;;;1.28
12430;BMP280;6279;42.192;24.326;2023-03-14T02:27:15;99498.31;;;1.42
12430;BMP280;6279;42.192;24.326;2023-03-14T02:29:54;99500.16;;;1.40
12430;BMP280;6279;42.192;24.326;2023-03-14T02:32:22;99492.38;;;1.42
12430;BMP280;6279;42.192;24.326;2023-03-14T02:34:57;99492.38;;;1.42
12430;BMP280;6279;42.192;24.326;2023-03-14T02:37:26;99499.53;;;1.25
12430;BMP280;6279;42.192;24.326;2023-03-14T02:39:53;99502.72;;;1.02
12430;BMP280;6279;42.192;24.326;2023-03-14T02:42:19;99505.34;;;1.14
12430;BMP280;6279;42.192;24.326;2023-03-14T02:47:37;99505.38;;;1.27
12430;BMP280;6279;42.192;24.326;2023-03-14T02:50:10;99504.84;;;1.22
12430;BMP280;6279;42.192;24.326;2023-03-14T02:52:37;99508.22;;;1.10
12430;BMP280;6279;42.192;24.326;2023-03-14T02:55:03;99494.75;;;1.07
12430;BMP280;6279;42.192;24.326;2023-03-14T02:57:28;99490.13;;;0.99
12430;BMP280;6279;42.192;24.326;2023-03-14T02:59:54;99489.22;;;1.00
12430;BMP280;6279;42.192;24.326;2023-03-14T03:02:19;99485.72;;;1.01
12430;BMP280;6279;42.192;24.326;2023-03-14T03:04:44;99490.03;;;1.01
12430;BMP280;6279;42.192;24.326;2023-03-14T03:07:10;99491.56;;;1.03
12430;BMP280;6279;42.192;24.326;2023-03-14T03:09:35;99495.28;;;0.86
12430;BMP280;6279;42.192;24.326;2023-03-14T03:12:01;99489.22;;;1.00
12430;BMP280;6279;42.192;24.326;2023-03-14T03:14:26;99497.38;;;0.93
12430;BMP280;6279;42.192;24.326;2023-03-14T03:16:51;99496.69;;;0.77
12430;BMP280;6279;42.192;24.326;2023-03-14T03:19:17;99495.28;;;0.86
12430;BMP280;6279;42.192;24.326;2023-03-14T03:21:43;99497.72;;;0.75
12430;BMP280;6279;42.192;24.326;2023-03-14T03:24:09;99498.06;;;0.69
12430;BMP280;6279;42.192;24.326;2023-03-14T03:26:35;99497.03;;;0.59
12430;BMP280;6279;42.192;24.326;2023-03-14T03:29:00;99494.97;;;0.78
12430;BMP280;6279;42.192;24.326;2023-03-14T03:31:26;99486.59;;;0.88
12430;BMP280;6279;42.192;24.326;2023-03-14T03:33:51;99481.25;;;0.79
12430;BMP280;6279;42.192;24.326;2023-03-14T03:36:21;99485.06;;;0.86
12430;BMP280;6279;42.192;24.326;2023-03-14T03:38:47;99473.88;;;0.87
12430;BMP280;6279;42.192;24.326;2023-03-14T03:41:13;99474.47;;;0.78
12430;BMP280;6279;42.192;24.326;2023-03-14T03:43:38;99463.75;;;0.85
12430;BMP280;6279;42.192;24.326;2023-03-14T03:46:10;99467.84;;;0.87
12430;BMP280;6279;42.192;24.326;2023-03-14T03:48:36;99470.72;;;0.83
12430;BMP280;6279;42.192;24.326;2023-03-14T03:51:01;99467.94;;;0.74
12430;BMP280;6279;42.192;24.326;2023-03-14T03:53:27;99469.19;;;0.67
12430;BMP280;6279;42.192;24.326;2023-03-14T03:55:53;99471.84;;;0.65
12430;BMP280;6279;42.192;24.326;2023-03-14T03:58:19;99464.91;;;0.67
12430;BMP280;6279;42.192;24.326;2023-03-14T04:00:44;99475.03;;;0.69
12430;BMP280;6279;42.192;24.326;2023-03-14T04:03:10;99470.66;;;0.71
12430;BMP280;6279;42.192;24.326;2023-03-14T04:05:35;99473.41;;;0.68
12430;BMP280;6279;42.192;24.326;2023-03-14T04:08:01;99472.88;;;0.63
12430;BMP280;6279;42.192;24.326;2023-03-14T04:10:26;99470.94;;;0.66
12430;BMP280;6279;42.192;24.326;2023-03-14T04:12:52;99475.13;;;0.67
12430;BMP280;6279;42.192;24.326;2023-03-14T04:15:17;99473.78;;;0.62
12430;BMP280;6279;42.192;24.326;2023-03-14T04:17:43;99470.81;;;0.56
12430;BMP280;6279;42.192;24.326;2023-03-14T04:20:09;99472.81;;;0.51
12430;BMP280;6279;42.192;24.326;2023-03-14T04:22:38;99470.97;;;0.53
12430;BMP280;6279;42.192;24.326;2023-03-14T04:25:04;99463.94;;;0.56
12430;BMP280;6279;42.192;24.326;2023-03-14T04:27:30;99452.81;;;0.57
12430;BMP280;6279;42.192;24.326;2023-03-14T04:29:55;99462.13;;;0.58
12430;BMP280;6279;42.192;24.326;2023-03-14T04:32:21;99467.97;;;0.60
12430;BMP280;6279;42.192;24.326;2023-03-14T04:34:46;99472.66;;;0.54
12430;BMP280;6279;42.192;24.326;2023-03-14T04:37:12;99472.44;;;0.57
12430;BMP280;6279;42.192;24.326;2023-03-14T04:39:37;99473.47;;;0.54
12430;BMP280;6279;42.192;24.326;2023-03-14T04:42:03;99473.78;;;0.62
12430;BMP280;6279;42.192;24.326;2023-03-14T04:44:28;99474.00;;;0.59
12430;BMP280;6279;42.192;24.326;2023-03-14T04:46:54;99479.63;;;0.64
12430;BMP280;6279;42.192;24.326;2023-03-14T04:49:19;99478.41;;;0.69
12430;BMP280;6279;42.192;24.326;2023-03-14T04:51:45;99481.06;;;0.68
12430;BMP280;6279;42.192;24.326;2023-03-14T04:54:10;99479.06;;;0.73
12430;BMP280;6279;42.192;24.326;2023-03-14T04:56:36;99480.66;;;0.87
12430;BMP280;6279;42.192;24.326;2023-03-14T04:59:02;99480.81;;;0.98
12430;BMP280;6279;42.192;24.326;2023-03-14T05:01:28;99485.72;;;1.01
12430;BMP280;6279;42.192;24.326;2023-03-14T05:03:53;99485.72;;;1.01
12430;BMP280;6279;42.192;24.326;2023-03-14T05:06:19;99484.13;;;1.12
12430;BMP280;6279;42.192;24.326;2023-03-14T05:08:44;99486.19;;;1.20
12430;BMP280;6279;42.192;24.326;2023-03-14T05:11:10;99486.84;;;1.35
12430;BMP280;6279;42.192;24.326;2023-03-14T05:13:36;99491.09;;;1.49
12430;BMP280;6279;42.192;24.326;2023-03-14T05:16:07;99483.81;;;1.67
12430;BMP280;6279;42.192;24.326;2023-03-14T05:18:32;99489.88;;;1.91
12430;BMP280;6279;42.192;24.326;2023-03-14T05:20:58;99486.28;;;2.05
12430;BMP280;6279;42.192;24.326;2023-03-14T05:23:24;99487.19;;;2.29
12430;BMP280;6279;42.192;24.326;2023-03-14T05:25:49;99486.13;;;2.43
12430;BMP280;6279;42.192;24.326;2023-03-14T05:28:15;99483.59;;;2.66
12430;BMP280;6279;42.192;24.326;2023-03-14T05:30:40;99478.38;;;2.91
12430;BMP280;6279;42.192;24.326;2023-03-14T05:33:05;99488.06;;;3.10
12430;BMP280;6279;42.192;24.326;2023-03-14T05:35:31;99482.28;;;3.30
12430;BMP280;6279;42.192;24.326;2023-03-14T05:37:56;99483.34;;;3.38
12430;BMP280;6279;42.192;24.326;2023-03-14T05:40:22;99477.50;;;3.26
12430;BMP280;6279;42.192;24.326;2023-03-14T05:42:47;99463.66;;;3.49
12430;BMP280;6279;42.192;24.326;2023-03-14T05:45:12;99462.81;;;3.83
12430;BMP280;6279;42.192;24.326;2023-03-14T05:47:38;99470.31;;;4.07
12430;BMP280;6279;42.192;24.326;2023-03-14T05:50:03;99462.25;;;4.33
12430;BMP280;6279;42.192;24.326;2023-03-14T05:52:29;99461.72;;;4.60
12430;BMP280;6279;42.192;24.326;2023-03-14T05:54:54;99464.59;;;4.88
12430;BMP280;6279;42.192;24.326;2023-03-14T05:57:20;99458.28;;;5.23
12430;BMP280;6279;42.192;24.326;2023-03-14T05:59:45;99455.50;;;5.35
12430;BMP280;6279;42.192;24.326;2023-03-14T06:02:10;99469.56;;;5.11
12430;BMP280;6279;42.192;24.326;2023-03-14T06:04:36;99460.38;;;5.18
12430;BMP280;6279;42.192;24.326;2023-03-14T06:07:01;99457.53;;;5.52
12430;BMP280;6279;42.192;24.326;2023-03-14T06:09:27;99451.94;;;5.87
12430;BMP280;6279;42.192;24.326;2023-03-14T06:11:52;99452.31;;;6.03
12430;BMP280;6279;42.192;24.326;2023-03-14T06:14:18;99447.44;;;6.38
12430;BMP280;6279;42.192;24.326;2023-03-14T06:16:43;99452.75;;;6.37
12430;BMP280;6279;42.192;24.326;2023-03-14T06:19:08;99457.56;;;6.60
12430;BMP280;6279;42.192;24.326;2023-03-14T06:21:34;99452.09;;;7.01
12430;BMP280;6279;42.192;24.326;2023-03-14T06:24:01;99442.28;;;7.05
12430;BMP280;6279;42.192;24.326;2023-03-14T06:26:26;99451.00;;;7.13
12430;BMP280;6279;42.192;24.326;2023-03-14T06:28:52;99441.47;;;7.42
12430;BMP280;6279;42.192;24.326;2023-03-14T06:31:19;99426.63;;;8.16
12430;BMP280;6279;42.192;24.326;2023-03-14T06:33:44;99433.06;;;8.39
12430;BMP280;6279;42.192;24.326;2023-03-14T06:36:09;99432.47;;;8.18
12430;BMP280;6279;42.192;24.326;2023-03-14T06:38:35;99434.16;;;8.36
12430;BMP280;6279;42.192;24.326;2023-03-14T06:41:05;99441.31;;;8.52
12430;BMP280;6279;42.192;24.326;2023-03-14T06:43:30;99434.25;;;8.71
12430;BMP280;6279;42.192;24.326;2023-03-14T06:45:56;99426.75;;;8.94
12430;BMP280;6279;42.192;24.326;2023-03-14T06:48:21;99417.09;;;9.38
12430;BMP280;6279;42.192;24.326;2023-03-14T06:50:48;99413.19;;;9.76
12430;BMP280;6279;42.192;24.326;2023-03-14T06:53:13;99415.19;;;9.82
12430;BMP280;6279;42.192;24.326;2023-03-14T06:55:38;99413.19;;;10.26
12430;BMP280;6279;42.192;24.326;2023-03-14T06:58:04;99393.94;;;11.24
12430;BMP280;6279;42.192;24.326;2023-03-14T07:00:32;99398.97;;;12.04
12430;BMP280;6279;42.192;24.326;2023-03-14T07:02:57;99401.75;;;11.79
12430;BMP280;6279;42.192;24.326;2023-03-14T07:05:22;99402.63;;;11.63
12430;BMP280;6279;42.192;24.326;2023-03-14T07:07:48;99391.91;;;12.95
12430;BMP280;6279;42.192;24.326;2023-03-14T07:10:13;99395.97;;;13.19
12430;BMP280;6279;42.192;24.326;2023-03-14T07:12:39;99390.53;;;13.29
12430;BMP280;6279;42.192;24.326;2023-03-14T07:15:04;99389.28;;;14.40
12430;BMP280;6279;42.192;24.326;2023-03-14T07:17:30;99389.75;;;14.29
12430;BMP280;6279;42.192;24.326;2023-03-14T07:19:55;99382.66;;;14.72
12430;BMP280;6279;42.192;24.326;2023-03-14T07:22:20;99376.22;;;15.03
12430;BMP280;6279;42.192;24.326;2023-03-14T07:24:46;99372.41;;;14.91
12430;BMP280;6279;42.192;24.326;2023-03-14T07:27:11;99374.44;;;15.51
12430;BMP280;6279;42.192;24.326;2023-03-14T07:29:37;99395.25;;;14.20
12430;BMP280;6279;42.192;24.326;2023-03-14T07:32:02;99386.78;;;13.67
12430;BMP280;6279;42.192;24.326;2023-03-14T07:34:28;99380.94;;;13.80
12430;BMP280;6279;42.192;24.326;2023-03-14T07:36:53;99379.09;;;14.45
12430;BMP280;6279;42.192;24.326;2023-03-14T07:39:18;99366.16;;;15.47
12430;BMP280;6279;42.192;24.326;2023-03-14T07:41:44;99358.69;;;16.77
12430;BMP280;6279;42.192;24.326;2023-03-14T07:44:09;99351.38;;;17.51
12430;BMP280;6279;42.192;24.326;2023-03-14T07:46:34;99353.44;;;17.61
12430;BMP280;6279;42.192;24.326;2023-03-14T07:49:00;99353.84;;;17.71
12430;BMP280;6279;42.192;24.326;2023-03-14T07:51:25;99353.22;;;16.66
12430;BMP280;6279;42.192;24.326;2023-03-14T07:53:51;99352.47;;;16.85
12430;BMP280;6279;42.192;24.326;2023-03-14T07:56:16;99352.03;;;16.02
12430;BMP280;6279;42.192;24.326;2023-03-14T07:58:41;99340.47;;;17.41
12430;BMP280;6279;42.192;24.326;2023-03-14T08:01:07;99331.44;;;18.44
12430;BMP280;6279;42.192;24.326;2023-03-14T08:03:32;99330.63;;;19.53
12430;BMP280;6279;42.192;24.326;2023-03-14T08:05:58;99330.13;;;19.69
12430;BMP280;6279;42.192;24.326;2023-03-14T08:08:23;99320.81;;;20.61
12430;BMP280;6279;42.192;24.326;2023-03-14T08:10:48;99333.28;;;18.86
12430;BMP280;6279;42.192;24.326;2023-03-14T08:13:14;99323.16;;;20.51
12430;BMP280;6279;42.192;24.326;2023-03-14T08:15:40;99313.41;;;22.50
12430;BMP280;6279;42.192;24.326;2023-03-14T08:18:05;99325.13;;;21.02
12430;BMP280;6279;42.192;24.326;2023-03-14T08:20:31;99321.81;;;21.35
12430;BMP280;6279;42.192;24.326;2023-03-14T08:23:01;99331.09;;;19.92
12430;BMP280;6279;42.192;24.326;2023-03-14T08:25:27;99338.09;;;19.56
12430;BMP280;6279;42.192;24.326;2023-03-14T08:27:54;99323.31;;;20.21
12430;BMP280;6279;42.192;24.326;2023-03-14T08:30:20;99319.78;;;19.61
12430;BMP280;6279;42.192;24.326;2023-03-14T08:32:46;99302.38;;;20.54
12430;BMP280;6279;42.192;24.326;2023-03-14T08:37:37;99288.66;;;25.18
12430;BMP280;6279;42.192;24.326;2023-03-14T08:40:12;99297.00;;;25.88
12430;BMP280;6279;42.192;24.326;2023-03-14T08:42:41;99286.97;;;27.20
12430;BMP280;6279;42.192;24.326;2023-03-14T08:45:07;99285.38;;;27.48
12430;BMP280;6279;42.192;24.326;2023-03-14T08:47:33;99277.06;;;28.80
12430;BMP280;6279;42.192;24.326;2023-03-14T08:49:58;99262.56;;;28.86
12430;BMP280;6279;42.192;24.326;2023-03-14T08:52:24;99259.44;;;30.10
12430;BMP280;6279;42.192;24.326;2023-03-14T08:54:49;99266.19;;;30.08
12430;BMP280;6279;42.192;24.326;2023-03-14T08:57:15;99256.19;;;30.13
12430;BMP280;6279;42.192;24.326;2023-03-14T08:59:40;99256.22;;;28.72
12430;BMP280;6279;42.192;24.326;2023-03-14T09:02:05;99262.16;;;27.53
12430;BMP280;6279;42.192;24.326;2023-03-14T09:04:32;99256.19;;;25.47
12430;BMP280;6279;42.192;24.326;2023-03-14T09:06:58;99246.88;;;24.24
12430;BMP280;6279;42.192;24.326;2023-03-14T09:09:24;99241.06;;;24.27
12430;BMP280;6279;42.192;24.326;2023-03-14T09:11:51;99238.56;;;24.63
12430;BMP280;6279;42.192;24.326;2023-03-14T09:14:17;99241.47;;;24.15
12430;BMP280;6279;42.192;24.326;2023-03-14T09:17:06;99232.66;;;25.70
12430;BMP280;6279;42.192;24.326;2023-03-14T09:19:58;99225.16;;;26.67
12430;BMP280;6279;42.192;24.326;2023-03-14T09:22:24;99229.94;;;26.61
12430;BMP280;6279;42.192;24.326;2023-03-14T09:24:49;99232.00;;;25.94
12430;BMP280;6279;42.192;24.326;2023-03-14T09:27:15;99218.78;;;27.96
12430;BMP280;6279;42.192;24.326;2023-03-14T09:29:40;99212.91;;;27.94
12430;BMP280;6279;42.192;24.326;2023-03-14T09:32:05;99211.31;;;26.95
12430;BMP280;6279;42.192;24.326;2023-03-14T09:34:31;99222.88;;;22.69
12430;BMP280;6279;42.192;24.326;2023-03-14T09:36:56;99214.31;;;22.79
12430;BMP280;6279;42.192;24.326;2023-03-14T09:39:22;99200.66;;;24.72
12430;BMP280;6279;42.192;24.326;2023-03-14T09:41:50;99190.16;;;26.54
12430;BMP280;6279;42.192;24.326;2023-03-14T09:46:50;99179.19;;;28.60
12430;BMP280;6279;42.192;24.326;2023-03-14T09:49:33;99171.06;;;28.74
12430;BMP280;6279;42.192;24.326;2023-03-14T09:52:01;99188.28;;;25.44
12430;BMP280;6279;42.192;24.326;2023-03-14T09:57:00;99164.53;;;26.53
12430;BMP280;6279;42.192;24.326;2023-03-14T09:59:27;99164.97;;;25.30
12430;BMP280;6279;42.192;24.326;2023-03-14T10:01:56;99155.31;;;24.63
12430;BMP280;6279;42.192;24.326;2023-03-14T10:04:22;99156.84;;;24.54
12430;BMP280;6279;42.192;24.326;2023-03-14T10:06:50;99144.44;;;25.61
12430;BMP280;6279;42.192;24.326;2023-03-14T10:09:23;99130.78;;;25.53
12430;BMP280;6279;42.192;24.326;2023-03-14T10:11:56;99134.16;;;27.13
12430;BMP280;6279;42.192;24.326;2023-03-14T10:14:33;99138.97;;;26.77
12430;BMP280;6279;42.192;24.326;2023-03-14T10:17:08;99130.69;;;26.63
12430;BMP280;6279;42.192;24.326;2023-03-14T10:19:35;99123.50;;;26.74
12430;BMP280;6279;42.192;24.326;2023-03-14T10:22:01;99120.13;;;26.08
12430;BMP280;6279;42.192;24.326;2023-03-14T10:24:30;99120.91;;;24.77
12430;BMP280;6279;42.192;24.326;2023-03-14T10:27:04;99117.47;;;24.30
12430;BMP280;6279;42.192;24.326;2023-03-14T10:29:32;99105.59;;;24.94
12430;BMP280;6279;42.192;24.326;2023-03-14T10:32:04;99092.75;;;25.67
12430;BMP280;6279;42.192;24.326;2023-03-14T10:34:39;99087.22;;;26.68
12430;BMP280;6279;42.192;24.326;2023-03-14T10:37:21;99080.25;;;26.96
12430;BMP280;6279;42.192;24.326;2023-03-14T10:42:19;99066.13;;;26.86
12430;BMP280;6279;42.192;24.326;2023-03-14T10:44:50;99069.28;;;27.12
12430;BMP280;6279;42.192;24.326;2023-03-14T10:47:22;99057.72;;;24.99
12430;BMP280;6279;42.192;24.326;2023-03-14T10:49:48;99050.75;;;24.88
12430;BMP280;6279;42.192;24.326;2023-03-14T10:54:47;99048.38;;;24.04
12430;BMP280;6279;42.192;24.326;2023-03-14T10:57:12;99040.78;;;22.91
12430;BMP280;6279;42.192;24.326;2023-03-14T10:59:40;99047.19;;;19.78
12430;BMP280;6279;42.192;24.326;2023-03-14T11:05:31;99027.13;;;20.17
12430;BMP280;6279;42.192;24.326;2023-03-14T11:08:26;99005.34;;;21.34
12430;BMP280;6279;42.192;24.326;2023-03-14T11:11:07;99003.53;;;20.56
12430;BMP280;6279;42.192;24.326;2023-03-14T11:16:24;98970.31;;;20.37
12430;BMP280;6279;42.192;24.326;2023-03-14T11:27:00;98932.06;;;20.17
12430;BMP280;6279;42.192;24.326;2023-03-14T11:29:41;98932.53;;;20.03
12430;BMP280;6279;42.192;24.326;2023-03-14T11:32:17;98928.53;;;19.14
12430;BMP280;6279;42.192;24.326;2023-03-14T11:34:50;98918.13;;;19.77
12430;BMP280;6279;42.192;24.326;2023-03-14T11:37:26;98912.66;;;20.12
12430;BMP280;6279;42.192;24.326;2023-03-14T11:40:22;98905.22;;;19.11
12430;BMP280;6279;42.192;24.326;2023-03-14T11:42:59;98897.47;;;19.16
12430;BMP280;6279;42.192;24.326;2023-03-14T11:45:30;98898.66;;;18.32
12430;BMP280;6279;42.192;24.326;2023-03-14T11:48:17;98893.16;;;17.61
12430;BMP280;6279;42.192;24.326;2023-03-14T11:50:48;98868.78;;;19.08
12430;BMP280;6279;42.192;24.326;2023-03-14T11:53:22;98860.31;;;18.53
12430;BMP280;6279;42.192;24.326;2023-03-14T11:55:51;98856.09;;;18.52
12430;BMP280;6279;42.192;24.326;2023-03-14T11:58:23;98854.78;;;18.26
12430;BMP280;6279;42.192;24.326;2023-03-14T12:00:51;98856.31;;;18.33
12430;BMP280;6279;42.192;24.326;2023-03-14T12:03:24;98850.16;;;18.39
12430;BMP280;6279;42.192;24.326;2023-03-14T12:06:15;98842.03;;;17.57
12430;BMP280;6279;42.192;24.326;2023-03-14T12:08:58;98832.06;;;17.83
12430;BMP280;6279;42.192;24.326;2023-03-14T12:11:47;98831.53;;;17.51
12430;BMP280;6279;42.192;24.326;2023-03-14T12:16:48;98816.72;;;16.96
12430;BMP280;6279;42.192;24.326;2023-03-14T12:21:50;98819.38;;;16.53
12430;BMP280;6279;42.192;24.326;2023-03-14T12:24:24;98812.00;;;17.17
12430;BMP280;6279;42.192;24.326;2023-03-14T12:26:56;98801.81;;;17.51
12430;BMP280;6279;42.192;24.326;2023-03-14T12:29:22;98808.97;;;17.13
12430;BMP280;6279;42.192;24.326;2023-03-14T12:31:49;98800.56;;;16.99
12430;BMP280;6279;42.192;24.326;2023-03-14T12:34:33;98797.91;;;16.68
12430;BMP280;6279;42.192;24.326;2023-03-14T12:45:14;98788.06;;;16.58
12430;BMP280;6279;42.192;24.326;2023-03-14T12:47:50;98784.69;;;16.45
12430;BMP280;6279;42.192;24.326;2023-03-14T12:50:21;98785.81;;;16.18
12430;BMP280;6279;42.192;24.326;2023-03-14T13:01:46;98756.84;;;15.69
12430;BMP280;6279;42.192;24.326;2023-03-14T13:04:12;98751.59;;;15.81
12430;BMP280;6279;42.192;24.326;2023-03-14T13:11:52;98736.72;;;15.31
12430;BMP280;6279;42.192;24.326;2023-03-14T13:14:18;98735.31;;;15.48
12430;BMP280;6279;42.192;24.326;2023-03-14T13:16:44;98737.09;;;15.54
12430;BMP280;6279;42.192;24.326;2023-03-14T13:19:18;98720.97;;;15.63
12430;BMP280;6279;42.192;24.326;2023-03-14T13:21:44;98718.53;;;15.74
12430;BMP280;6279;42.192;24.326;2023-03-14T13:24:24;98716.03;;;15.98
12430;BMP280;6279;42.192;24.326;2023-03-14T13:26:52;98712.63;;;15.85
12430;BMP280;6279;42.192;24.326;2023-03-14T13:29:21;98701.94;;;15.86
12430;BMP280;6279;42.192;24.326;2023-03-14T13:31:50;98692.50;;;15.73
12430;BMP280;6279;42.192;24.326;2023-03-14T13:34:16;98689.03;;;15.91
12430;BMP280;6279;42.192;24.326;2023-03-14T13:36:41;98681.84;;;15.55
12430;BMP280;6279;42.192;24.326;2023-03-14T13:39:12;98688.97;;;15.42
12430;BMP280;6279;42.192;24.326;2023-03-14T13:41:39;98687.56;;;15.33
12430;BMP280;6279;42.192;24.326;2023-03-14T13:44:07;98678.09;;;15.19
12430;BMP280;6279;42.192;24.326;2023-03-14T13:46:35;98662.78;;;15.23
12430;BMP280;6279;42.192;24.326;2023-03-14T13:49:06;98663.41;;;15.12
12430;BMP280;6279;42.192;24.326;2023-03-14T13:51:32;98663.81;;;15.09
12430;BMP280;6279;42.192;24.326;2023-03-14T13:53:59;98655.31;;;14.94
12430;BMP280;6279;42.192;24.326;2023-03-14T13:56:27;98644.66;;;14.90
12430;BMP280;6279;42.192;24.326;2023-03-14T13:58:53;98641.81;;;14.97
12430;BMP280;6279;42.192;24.326;2023-03-14T14:01:21;98638.81;;;15.00
12430;BMP280;6279;42.192;24.326;2023-03-14T14:03:52;98633.56;;;14.81
12430;BMP280;6279;42.192;24.326;2023-03-14T14:06:37;98631.75;;;14.82
12430;BMP280;6279;42.192;24.326;2023-03-14T14:09:19;98624.94;;;14.87
12430;BMP280;6279;42.192;24.326;2023-03-14T14:11:53;98623.69;;;14.96
12430;BMP280;6279;42.192;24.326;2023-03-14T14:14:24;98617.06;;;15.00
12430;BMP280;6279;42.192;24.326;2023-03-14T14:16:51;98609.41;;;14.92
12430;BMP280;6279;42.192;24.326;2023-03-14T14:19:19;98609.44;;;14.73
12430;BMP280;6279;42.192;24.326;2023-03-14T14:21:46;98600.97;;;14.52
12430;BMP280;6279;42.192;24.326;2023-03-14T14:24:15;98592.53;;;14.56
12430;BMP280;6279;42.192;24.326;2023-03-14T14:26:47;98593.72;;;14.60
12430;BMP280;6279;42.192;24.326;2023-03-14T14:29:33;98584.06;;;14.73
12430;BMP280;6279;42.192;24.326;2023-03-14T14:32:08;98576.00;;;14.62
12430;BMP280;6279;42.192;24.326;2023-03-14T14:34:47;98581.84;;;14.51
12430;BMP280;6279;42.192;24.326;2023-03-14T14:37:23;98583.88;;;14.30
12430;BMP280;6279;42.192;24.326;2023-03-14T14:39:51;98580.03;;;14.33
12430;BMP280;6279;42.192;24.326;2023-03-14T14:42:20;98576.41;;;14.40
12430;BMP280;6279;42.192;24.326;2023-03-14T14:44:50;98576.03;;;14.49
12430;BMP280;6279;42.192;24.326;2023-03-14T14:47:20;98578.81;;;14.48
12430;BMP280;6279;42.192;24.326;2023-03-14T14:49:47;98579.22;;;14.45
12430;BMP280;6279;42.192;24.326;2023-03-14T14:54:47;98568.56;;;14.47
12430;BMP280;6279;42.192;24.326;2023-03-14T14:57:21;98561.72;;;14.52
12430;BMP280;6279;42.192;24.326;2023-03-14T14:59:49;98556.28;;;14.47
12430;BMP280;6279;42.192;24.326;2023-03-14T15:02:45;98557.50;;;14.51
12430;BMP280;6279;42.192;24.326;2023-03-14T15:05:13;98545.03;;;14.53
12430;BMP280;6279;42.192;24.326;2023-03-14T15:07:39;98543.03;;;14.48
12430;BMP280;6279;42.192;24.326;2023-03-14T15:10:05;98544.63;;;14.49
12430;BMP280;6279;42.192;24.326;2023-03-14T15:12:30;98539.56;;;14.48
12430;BMP280;6279;42.192;24.326;2023-03-14T15:14:56;98531.91;;;14.47
12430;BMP280;6279;42.192;24.326;2023-03-14T15:17:22;98534.16;;;14.43
12430;BMP280;6279;42.192;24.326;2023-03-14T15:19:49;98522.06;;;14.42
12430;BMP280;6279;42.192;24.326;2023-03-14T15:22:14;98511.59;;;14.42